createdAt,value
2019-02-20T00:02:55.346Z,24.23
2019-02-20T00:08:01.541Z,22.00
2019-02-20T00:13:07.608Z,23.33
2019-02-20T00:18:13.777Z,25.90
2019-02-20T00:23:19.956Z,23.57
2019-02-20T00:28:26.084Z,27.13
2019-02-20T00:33:32.136Z,24.70
2019-02-20T00:38:38.313Z,24.73
2019-02-20T00:43:47.199Z,26.57
2019-02-20T00:49:04.207Z,24.77
2019-02-20T00:54:10.254Z,26.20
2019-02-20T00:59:16.930Z,25.47
2019-02-20T01:04:23.133Z,26.40
2019-02-20T01:09:29.189Z,25.23
2019-02-20T01:14:35.331Z,26.30
2019-02-20T01:19:41.514Z,27.53
2019-02-20T01:24:47.706Z,23.90
2019-02-20T01:29:53.882Z,24.90
2019-02-20T01:35:00.160Z,26.20
2019-02-20T01:40:06.593Z,26.47
2019-02-20T01:45:12.834Z,27.90
2019-02-20T01:50:18.887Z,25.80
2019-02-20T01:55:24.992Z,29.93
2019-02-20T02:00:31.140Z,29.83
2019-02-20T02:05:37.314Z,26.53
2019-02-20T02:10:43.392Z,28.47
2019-02-20T02:15:49.584Z,27.17
2019-02-20T02:20:55.758Z,30.60
2019-02-20T02:26:10.472Z,29.10
2019-02-20T02:31:09.561Z,26.07
2019-02-20T02:36:15.719Z,26.57
2019-02-20T02:41:21.914Z,29.30
2019-02-20T02:46:27.965Z,25.07
2019-02-20T02:51:35.080Z,26.50
2019-02-20T02:56:41.190Z,27.93
2019-02-20T03:01:47.465Z,33.17
2019-02-20T03:06:53.598Z,30.90
2019-02-20T03:11:59.673Z,27.17
2019-02-20T03:17:05.855Z,30.33
2019-02-20T03:22:12.036Z,27.37
2019-02-20T03:27:18.122Z,29.83
2019-02-20T03:32:24.191Z,28.17
2019-02-20T03:37:30.345Z,31.30
2019-02-20T03:42:36.316Z,29.30
2019-02-20T03:47:42.446Z,33.37
2019-02-20T03:52:48.526Z,27.10
2019-02-20T03:57:54.636Z,28.23
2019-02-20T04:03:00.821Z,25.90
2019-02-20T04:08:06.934Z,31.67
2019-02-20T04:13:13.032Z,31.47
2019-02-20T04:18:19.192Z,28.63
2019-02-20T04:23:25.368Z,31.17
2019-02-20T04:28:31.558Z,49.47
2019-02-20T04:33:37.580Z,35.67
2019-02-20T04:38:43.764Z,35.40
2019-02-20T04:43:49.929Z,34.03
2019-02-20T04:48:56.009Z,30.60
2019-02-20T04:54:02.090Z,31.07
2019-02-20T04:59:08.281Z,31.30
2019-02-20T05:04:14.349Z,28.93
2019-02-20T05:09:20.339Z,27.77
2019-02-20T05:14:26.587Z,35.03
2019-02-20T05:19:32.795Z,35.87
2019-02-20T05:24:38.853Z,36.70
2019-02-20T05:29:44.912Z,35.40
2019-02-20T05:34:51.097Z,34.37
2019-02-20T05:39:57.179Z,40.43
2019-02-20T05:45:03.271Z,35.37
2019-02-20T05:50:09.609Z,37.27
2019-02-20T05:55:15.722Z,36.40
2019-02-20T06:00:21.811Z,34.07
2019-02-20T06:05:27.850Z,39.37
2019-02-20T06:10:34.023Z,40.20
2019-02-20T06:15:40.128Z,34.53
2019-02-20T06:20:46.163Z,33.13
2019-02-20T06:25:52.376Z,29.97
2019-02-20T06:30:59.451Z,34.90
2019-02-20T06:36:06.576Z,34.07
2019-02-20T06:41:12.623Z,38.37
2019-02-20T06:46:18.803Z,28.30
2019-02-20T06:51:24.988Z,36.73
2019-02-20T06:56:30.969Z,29.37
2019-02-20T07:01:37.048Z,32.37
2019-02-20T07:07:17.105Z,37.30
2019-02-20T07:12:40.082Z,32.07
2019-02-20T07:18:11.987Z,36.60
2019-02-20T07:23:46.395Z,34.53
2019-02-20T07:29:27.932Z,35.80
2019-02-20T07:34:33.970Z,34.07
2019-02-20T07:39:40.257Z,39.13
2019-02-20T07:44:46.444Z,34.50
2019-02-20T07:49:52.543Z,32.27
2019-02-20T07:54:58.593Z,33.07
2019-02-20T08:00:05.154Z,35.07
2019-02-20T08:05:11.963Z,28.80
2019-02-20T08:10:18.047Z,31.83
2019-02-20T08:15:25.281Z,31.63
2019-02-20T08:20:50.526Z,25.97
2019-02-20T08:25:56.695Z,27.57
2019-02-20T08:31:02.732Z,28.33
2019-02-20T08:36:08.798Z,24.73
2019-02-20T08:41:14.964Z,28.40
2019-02-20T08:46:21.034Z,29.17
2019-02-20T08:51:27.128Z,30.13
2019-02-20T08:56:33.289Z,26.50
2019-02-20T09:01:39.515Z,32.57
2019-02-20T09:06:45.771Z,32.93
2019-02-20T09:11:52.062Z,27.97
2019-02-20T09:16:58.115Z,26.87
2019-02-20T09:22:04.512Z,30.07
2019-02-20T09:27:10.679Z,31.07
2019-02-20T09:32:16.832Z,32.20
2019-02-20T09:37:23.011Z,32.53
2019-02-20T09:42:29.149Z,34.40
2019-02-20T09:47:35.385Z,28.00
2019-02-20T09:52:41.561Z,31.17
2019-02-20T09:57:47.722Z,33.63
2019-02-20T10:02:53.929Z,33.83
2019-02-20T10:08:00.033Z,27.70
2019-02-20T10:13:06.541Z,28.50
2019-02-20T10:18:12.793Z,27.87
2019-02-20T10:23:18.931Z,24.97
2019-02-20T10:28:25.008Z,31.10
2019-02-20T10:33:31.171Z,30.77
2019-02-20T10:38:37.218Z,25.77
2019-02-20T10:43:43.358Z,26.03
2019-02-20T10:48:49.385Z,29.27
2019-02-20T10:53:55.564Z,23.77
2019-02-20T10:59:01.646Z,23.23
2019-02-20T11:04:07.710Z,23.70
2019-02-20T11:09:13.846Z,21.47
2019-02-20T11:14:20.077Z,23.30
2019-02-20T11:19:27.145Z,22.30
2019-02-20T11:24:33.249Z,22.10
2019-02-20T11:29:39.412Z,25.70
2019-02-20T11:34:45.501Z,22.47
2019-02-20T11:39:51.622Z,22.07
2019-02-20T11:44:57.726Z,19.13
2019-02-20T11:50:03.940Z,26.87
2019-02-20T11:55:10.016Z,20.10
2019-02-20T12:00:16.157Z,17.53
2019-02-20T12:05:22.335Z,18.50
2019-02-20T12:10:28.724Z,16.00
2019-02-20T12:15:34.956Z,15.73
2019-02-20T12:20:41.063Z,18.17
2019-02-20T12:25:47.236Z,17.47
2019-02-20T12:30:53.317Z,13.83
2019-02-20T12:35:59.325Z,16.73
2019-02-20T12:41:06.494Z,12.27
2019-02-20T12:46:12.836Z,16.20
2019-02-20T12:51:18.945Z,13.97
2019-02-20T12:56:25.151Z,15.40
2019-02-20T13:01:31.141Z,14.03
2019-02-20T13:06:37.216Z,24.40
2019-02-20T13:11:43.401Z,16.47
2019-02-20T13:16:49.474Z,10.63
2019-02-20T13:21:55.644Z,13.23
2019-02-20T13:27:07.662Z,12.20
2019-02-20T13:32:10.403Z,17.93
2019-02-20T13:37:16.529Z,17.10
2019-02-20T13:42:22.704Z,16.60
2019-02-20T13:47:28.753Z,15.07
2019-02-20T13:52:34.986Z,17.47
2019-02-20T13:57:41.368Z,17.43
2019-02-20T14:02:47.480Z,17.47
2019-02-20T14:07:53.697Z,13.90
2019-02-20T14:13:00.301Z,13.87
2019-02-20T14:18:06.413Z,11.33
2019-02-20T14:23:12.913Z,15.53
2019-02-20T14:28:30.605Z,10.53
2019-02-20T14:33:36.833Z,8.80
2019-02-20T14:38:43.327Z,14.03
2019-02-20T14:43:49.398Z,11.00
2019-02-20T14:48:55.511Z,20.53
2019-02-20T14:54:01.847Z,14.67
2019-02-20T14:59:08.094Z,15.10
2019-02-20T15:04:15.140Z,15.20
2019-02-20T15:09:21.499Z,16.00
2019-02-20T15:14:28.007Z,13.60
2019-02-20T15:19:33.978Z,9.93
2019-02-20T15:24:40.104Z,11.37
2019-02-20T15:29:46.716Z,11.50
2019-02-20T15:34:52.862Z,16.00
2019-02-20T15:39:59.061Z,17.97
2019-02-20T15:45:05.993Z,15.93
2019-02-20T15:50:12.593Z,9.73
2019-02-20T15:55:18.455Z,10.40
2019-02-20T16:00:25.640Z,20.97
2019-02-20T16:05:32.051Z,21.17
2019-02-20T16:10:38.203Z,26.37
2019-02-20T16:15:44.276Z,15.57
2019-02-20T16:20:50.259Z,21.47
2019-02-20T16:25:56.340Z,14.23
2019-02-20T16:31:02.461Z,14.80
2019-02-20T16:36:08.675Z,14.73
2019-02-20T16:41:15.457Z,15.33
2019-02-20T16:46:21.568Z,19.37
2019-02-20T16:51:27.664Z,16.40
2019-02-20T16:56:33.882Z,13.73
2019-02-20T17:01:40.053Z,20.10
2019-02-20T17:06:46.243Z,16.90
2019-02-20T17:11:52.330Z,18.93
2019-02-20T17:16:58.780Z,22.77
2019-02-20T17:22:05.027Z,21.50
2019-02-20T17:27:11.051Z,40.83
2019-02-20T17:32:17.054Z,33.00
2019-02-20T17:37:23.186Z,35.47
2019-02-20T17:42:29.392Z,44.43
2019-02-20T17:47:35.461Z,34.33
2019-02-20T17:52:41.958Z,31.80
2019-02-20T17:57:48.055Z,30.20
2019-02-20T18:02:53.918Z,26.37
2019-02-20T18:08:00.503Z,29.77
2019-02-20T18:13:06.639Z,25.17
2019-02-20T18:18:12.744Z,24.03
2019-02-20T18:23:18.752Z,20.67
2019-02-20T18:28:25.006Z,24.67
2019-02-20T18:33:31.241Z,25.33
2019-02-20T18:38:37.387Z,30.10
2019-02-20T18:43:43.431Z,23.73
2019-02-20T18:48:49.584Z,31.50
2019-02-20T18:53:55.719Z,27.80
2019-02-20T18:59:01.739Z,24.40
2019-02-20T19:04:08.152Z,25.73
2019-02-20T19:09:24.893Z,26.80
2019-02-20T19:14:57.353Z,29.23
2019-02-20T19:20:25.204Z,23.90
2019-02-20T19:25:54.965Z,25.37
2019-02-20T19:31:38.293Z,20.27
2019-02-20T19:37:34.085Z,22.77
2019-02-20T19:43:15.088Z,37.17
2019-02-20T19:48:55.583Z,40.87
2019-02-20T19:54:42.043Z,37.70
2019-02-20T20:00:32.343Z,27.63
2019-02-20T20:06:30.362Z,25.50
2019-02-20T20:12:00.651Z,22.70
2019-02-20T20:17:48.772Z,25.00
2019-02-20T20:23:16.686Z,23.00
2019-02-20T20:29:06.427Z,22.30
2019-02-20T20:35:20.646Z,28.23
2019-02-20T20:41:13.721Z,22.30
2019-02-20T20:46:59.392Z,24.47
2019-02-20T20:52:58.040Z,26.97
2019-02-20T20:58:33.136Z,27.30
2019-02-20T21:03:44.839Z,22.67
2019-02-20T21:09:30.496Z,32.93
2019-02-20T21:14:43.883Z,35.47
2019-02-20T21:20:10.167Z,33.13
2019-02-20T21:25:42.421Z,75.67
2019-02-20T21:31:30.362Z,69.50
2019-02-20T21:36:56.857Z,66.27
2019-02-20T21:42:29.235Z,56.77
2019-02-20T21:48:04.516Z,49.00
2019-02-20T21:53:31.441Z,34.40
2019-02-20T21:59:05.528Z,26.30
2019-02-20T22:05:07.911Z,36.07
2019-02-20T22:11:24.297Z,31.00
2019-02-20T22:17:07.534Z,27.03
2019-02-20T22:22:57.906Z,29.23
2019-02-20T22:28:28.500Z,23.13
2019-02-20T22:34:01.870Z,25.10
2019-02-20T22:39:36.872Z,19.07
2019-02-20T22:45:22.231Z,19.30
2019-02-20T22:51:14.855Z,22.40
2019-02-20T22:56:44.772Z,23.63
2019-02-20T23:02:20.400Z,22.87
2019-02-20T23:07:44.366Z,26.80
2019-02-20T23:13:31.627Z,25.33
2019-02-20T23:18:37.747Z,22.27
2019-02-20T23:23:43.974Z,25.80
2019-02-20T23:28:50.118Z,23.33
2019-02-20T23:33:56.187Z,25.37
2019-02-20T23:39:02.248Z,24.90
2019-02-20T23:44:10.197Z,25.20
2019-02-20T23:49:16.324Z,25.17
2019-02-20T23:54:23.397Z,32.93
2019-02-20T23:59:30.821Z,28.10
